EST,Max TemperatureF,Mean TemperatureF,Min TemperatureF,Max Dew PointF,MeanDew PointF,Min DewpointF,Max Humidity, Mean Humidity, Min Humidity, Max Sea Level PressureIn, Mean Sea Level PressureIn, Min Sea Level PressureIn, Max VisibilityMiles, Mean VisibilityMiles, Min VisibilityMiles, Max Wind SpeedMPH, Mean Wind SpeedMPH, Max Gust SpeedMPH,PrecipitationIn, CloudCover, Events, WindDirDegrees
2011-12-1,37,32,26,31,28,26,100,91,65,30.34,30.27,30.16,10.0,7.0,0.2,7,2,,0.00,3,Fog,217
2011-12-2,37,32,26,34,30,26,100,94,80,30.52,30.38,30.23,10.0,6.8,1.2,10,2,,0.00,4,,268
2011-12-3,50,37,24,33,30,25,100,78,49,30.51,30.43,30.29,10.0,7.5,2.0,8,4,,0.01,0,,128
2011-12-4,57,48,38,47,35,25,98,63,36,30.28,30.21,30.15,10.0,9.9,7.0,12,6,22,0.03,5,Rain,191
2011-12-5,49,44,39,49,46,40,100,99,86,30.20,30.13,30.03,10.0,6.0,1.8,12,2,16,1.36,8,Rain,24
2011-12-6,39,38,37,40,38,36,100,98,89,30.10,30.05,29.99,10.0,8.3,2.5,12,6,16,0.07,8,Rain,359
2011-12-7,37,33,29,38,31,24,100,92,74,30.03,29.93,29.83,10.0,8.3,1.5,13,5,20,0.01,8,Rain-Snow,307
2011-12-8,36,32,29,27,24,22,80,73,58,30.22,30.15,29.98,10.0,10.0,10.0,14,8,20,0.00,4,,235
2011-12-9,37,34,30,33,30,23,100,88,67,30.29,30.20,30.15,10.0,6.2,0.5,14,4,17,0.11,8,Snow,257
2011-12-10,30,26,21,23,15,10,78,65,46,30.48,30.40,30.29,10.0,10.0,10.0,15,8,18,0.00,1,,260
2011-12-11,35,26,17,17,14,9,88,64,34,30.57,30.51,30.47,10.0,10.0,10.0,8,1,,0.00,0,,192
2011-12-12,41,29,17,20,16,12,88,63,30,30.48,30.43,30.40,10.0,10.0,10.0,4,0,,0.00,0,,251
2011-12-13,44,33,22,30,25,18,90,70,48,30.46,30.41,30.36,10.0,10.0,7.0,6,0,,0.00,5,,199
2011-12-14,49,42,36,47,39,29,100,91,68,30.36,30.21,29.97,10.0,5.9,1.2,10,2,,0.12,8,Rain,159
2011-12-15,57,48,38,55,47,27,100,86,63,30.01,29.83,29.68,10.0,8.4,2.5,25,11,38,0.40,8,Rain,230
2011-12-16,35,33,29,27,23,22,83,68,63,30.27,30.20,30.03,10.0,10.0,10.0,25,11,33,0.00,8,,274
2011-12-17,31,29,27,28,25,21,100,84,69,30.24,30.20,30.16,10.0,6.8,0.8,10,6,17,0.00,8,Snow,272
2011-12-18,34,30,27,29,26,23,100,84,64,30.22,30.17,30.10,10.0,7.8,2.5,10,3,,0.02,5,Snow,224
2011-12-19,44,38,32,42,32,26,99,72,66,30.09,30.01,29.95,10.0,9.6,1.5,14,8,22,0.01,6,,227
2011-12-20,41,36,32,41,36,32,100,100,99,30.15,30.07,29.92,10.0,3.0,0.2,10,4,17,0.23,8,Fog-Rain-Snow,100
2011-12-21,57,48,40,54,46,39,100,91,74,29.95,29.77,29.60,10.0,6.4,1.2,18,6,30,0.66,8,Rain,210
2011-12-22,44,38,32,41,38,33,100,88,75,30.10,30.02,29.95,10.0,8.2,1.2,10,5,,0.41,8,Rain-Snow,261
2011-12-23,36,32,27,36,28,18,100,88,65,30.27,30.18,29.99,10.0,8.2,1.5,10,6,,0.05,8,Rain-Snow,303
2011-12-24,34,30,26,26,24,18,89,78,67,30.39,30.31,30.22,10.0,10.0,10.0,6,2,,0.00,6,Snow,199
2011-12-25,44,37,30,28,27,25,82,69,46,30.22,30.08,29.93,10.0,10.0,10.0,21,9,32,0.00,4,,243
2011-12-26,42,38,34,30,26,25,82,65,52,30.33,30.20,29.98,10.0,10.0,10.0,13,7,20,0.00,4,,236
2011-12-27,36,34,32,36,31,26,100,89,65,29.98,29.61,29.34,10.0,5.9,0.8,14,3,18,0.30,7,Rain-Snow,201
2011-12-28,32,25,18,33,21,14,100,85,61,30.01,29.87,29.56,10.0,7.2,0.8,22,12,31,0.00,6,Snow,283
2011-12-29,42,31,21,32,26,20,95,81,65,29.98,29.81,29.69,10.0,9.7,3.0,8,3,17,0.02,7,Rain-Snow,175
2011-12-30,46,42,37,44,36,32,96,79,67,29.84,29.75,29.65,10.0,9.9,7.0,10,5,16,0.09,6,Rain,182
2011-12-31,44,40,37,42,38,36,100,95,82,30.08,29.89,29.67,10.0,5.8,1.2,12,6,18,0.00,8,Rain,244